Mitchell, SD (57301)

4:42 AM CST on December 10, 2016 (GMT -0600)
Capital Addition | | Change Station
Active Advisory: Winter Weather Advisory

Elev 1316 ft 43.72 °N, 98.03 °W | Updated 7 minutes ago

Overcast
Overcast
6.8 °F
Feels Like 7 °F
N
2.7
Wind Variable Wind from NNE

Today
High -- | Low -- °F
--% Chance of Precip.
Yesterday
High -- | Low -- °F
Precip. -- in
Pressure 30.55 in
Visibility 10.0 miles
Clouds Few 8000 ft
Overcast 10000 ft
Windchill 7 °F
Dew Point 3 °F
Humidity 85%
Rainfall 0.00 in
Snow Depth Not available.
7:55 AM 4:55 PM
Waxing Gibbous, 82% visible
METAR KMHE 100953Z AUTO 04008KT 10SM FEW080 OVC100 M14/M17 A3046 RMK AO2 SLP345 T11391167
Pressure 30.55 in
Visibility 10.0 miles
Clouds Few 8000 ft
Overcast 10000 ft
Windchill 7 °F
Dew Point 3 °F
Humidity 85%
Rainfall 0.00 in
Snow Depth Not available.
7:55 AM 4:55 PM
Waxing Gibbous, 82% visible
METAR KMHE 100953Z AUTO 04008KT 10SM FEW080 OVC100 M14/M17 A3046 RMK AO2 SLP345 T11391167

10-Day Weather Forecast

Almanac

Astronomy

Dec. 10, 2016 Rise Set
Actual Time
Civil Twilight
Nautical Twilight
Astronomical Twilight
Moon
Length of Visible Light
Length of Day
Tomorrow will be .
, % of the Moon is Illuminated

Today's Extremes

State Highs State Lows

Community

WunderPhotos

Upload Photos

1,956,536 photos uploaded!

WunderBlog® & News

Nearby

Air Quality

  Air Quality AQ Index Pollutant
Not available.

Snow Depth

Station Depth Elevation

Earthquake Activity

City Distance Mag. Time & Date
Minimum magnitude displayed is 2.5.

Coastal Water Temperatures

Place Temperature

Stations

Nearby Weather Stations

Station Location Temp. Windchill Dew Point Humidity Wind Precip. Elev Updated Type
                   

Watches & Warnings

Winter Weather Advisory
Issued: 3:29 AM CST Dec. 10, 2016 – National Weather Service

... Winter Weather Advisory remains in effect until 9 am CST
Sunday...

* timing... light to moderate snow will develop Saturday morning
and continue off and on through Sunday morning.

* Accumulations... snowfall should average 3 to 5 inches.

* Visibility... the visibility will fall to around a half mile at
times.

Precautionary/preparedness actions...

A Winter Weather Advisory for snow means that periods of snow
will cause primarily travel difficulties. Be prepared for snow
covered roads and limited visibilities... and use caution while
driving.